createdAt,value
2019-01-19T00:00:17.401Z,961.92
2019-01-19T00:01:17.341Z,961.93
2019-01-19T00:02:17.232Z,961.95
2019-01-19T00:03:17.162Z,961.89
2019-01-19T00:04:17.089Z,961.93
2019-01-19T00:05:17.018Z,961.89
2019-01-19T00:06:16.949Z,961.88
2019-01-19T00:07:16.882Z,961.86
2019-01-19T00:08:16.812Z,961.84
2019-01-19T00:09:16.742Z,961.83
2019-01-19T00:10:16.668Z,961.87
2019-01-19T00:11:16.624Z,961.84
2019-01-19T00:12:16.527Z,961.82
2019-01-19T00:13:16.457Z,961.82
2019-01-19T00:14:16.384Z,961.80
2019-01-19T00:15:16.313Z,961.82
2019-01-19T00:16:16.245Z,961.80
2019-01-19T00:17:16.177Z,961.82
2019-01-19T00:18:16.105Z,961.78
2019-01-19T00:19:16.035Z,961.78
2019-01-19T00:20:15.964Z,961.76
2019-01-19T00:21:15.893Z,961.79
2019-01-19T00:22:15.820Z,961.79
2019-01-19T00:23:15.757Z,961.80
2019-01-19T00:24:15.681Z,961.75
2019-01-19T00:25:15.614Z,961.75
2019-01-19T00:26:15.538Z,961.77
2019-01-19T00:27:15.472Z,961.75
2019-01-19T00:28:15.400Z,961.78
2019-01-19T00:29:15.334Z,961.76
2019-01-19T00:30:15.261Z,961.67
2019-01-19T00:31:15.191Z,961.79
2019-01-19T00:32:15.121Z,961.75
2019-01-19T00:33:15.051Z,961.72
2019-01-19T00:34:14.985Z,961.73
2019-01-19T00:35:17.940Z,961.72
2019-01-19T00:36:14.839Z,961.71
2019-01-19T00:37:14.769Z,961.71
2019-01-19T00:38:14.699Z,961.70
2019-01-19T00:39:14.628Z,961.70
2019-01-19T00:40:14.558Z,961.70
2019-01-19T00:41:14.484Z,961.66
2019-01-19T00:42:14.419Z,961.71
2019-01-19T00:43:14.347Z,961.69
2019-01-19T00:44:14.279Z,961.70
2019-01-19T00:45:14.208Z,961.70
2019-01-19T00:46:14.147Z,961.69
2019-01-19T00:47:14.068Z,961.71
2019-01-19T00:48:13.996Z,961.63
2019-01-19T00:49:13.929Z,961.65
2019-01-19T00:50:13.863Z,961.66
2019-01-19T00:51:13.786Z,961.64
2019-01-19T00:52:13.715Z,961.60
2019-01-19T00:53:13.647Z,961.64
2019-01-19T00:54:13.588Z,961.62
2019-01-19T00:55:13.505Z,961.63
2019-01-19T00:56:13.436Z,961.63
2019-01-19T00:57:13.368Z,961.63
2019-01-19T00:58:13.291Z,961.66
2019-01-19T00:59:13.221Z,961.67
2019-01-19T01:00:13.154Z,961.66
2019-01-19T01:01:13.083Z,961.67
2019-01-19T01:02:13.013Z,961.62
2019-01-19T01:03:12.941Z,961.60
2019-01-19T01:04:12.872Z,961.66
2019-01-19T01:05:12.801Z,961.67
2019-01-19T01:06:12.731Z,961.64
2019-01-19T01:07:12.662Z,961.64
2019-01-19T01:08:12.593Z,961.65
2019-01-19T01:09:12.524Z,961.65
2019-01-19T01:10:12.451Z,961.64
2019-01-19T01:11:12.378Z,961.63
2019-01-19T01:12:12.309Z,961.63
2019-01-19T01:13:12.243Z,961.69
2019-01-19T01:14:12.167Z,961.65
2019-01-19T01:15:12.098Z,961.62
2019-01-19T01:16:12.075Z,961.68
2019-01-19T01:17:11.960Z,961.64
2019-01-19T01:18:11.886Z,961.66
2019-01-19T01:19:11.816Z,961.64
2019-01-19T01:20:11.749Z,961.67
2019-01-19T01:21:11.677Z,961.66
2019-01-19T01:22:11.606Z,961.65
2019-01-19T01:23:11.535Z,961.71
2019-01-19T01:24:11.466Z,961.72
2019-01-19T01:25:11.394Z,961.66
2019-01-19T01:26:11.326Z,961.68
2019-01-19T01:27:11.312Z,961.69
2019-01-19T01:28:11.184Z,961.66
2019-01-19T01:29:11.115Z,961.69
2019-01-19T01:30:11.042Z,961.68
2019-01-19T01:31:10.972Z,961.67
2019-01-19T01:32:10.902Z,961.66
2019-01-19T01:33:10.833Z,961.67
2019-01-19T01:34:10.761Z,961.67
2019-01-19T01:35:10.692Z,961.63
2019-01-19T01:36:10.623Z,961.64
2019-01-19T01:37:10.550Z,961.62
2019-01-19T01:38:10.482Z,961.58
2019-01-19T01:39:10.413Z,961.57
2019-01-19T01:40:10.342Z,961.58
2019-01-19T01:41:10.271Z,961.61
2019-01-19T01:42:10.230Z,961.58
2019-01-19T01:43:10.131Z,961.55
2019-01-19T01:44:10.061Z,961.55
2019-01-19T01:45:09.989Z,961.54
2019-01-19T01:46:09.920Z,961.56
2019-01-19T01:47:09.848Z,961.56
2019-01-19T01:48:09.777Z,961.55
2019-01-19T01:49:09.708Z,961.51
2019-01-19T01:50:09.638Z,961.53
2019-01-19T01:51:09.567Z,961.54
2019-01-19T01:52:09.497Z,961.52
2019-01-19T01:53:09.426Z,961.52
2019-01-19T01:54:09.354Z,961.50
2019-01-19T01:55:09.290Z,961.54
2019-01-19T01:56:09.217Z,961.51
2019-01-19T01:57:09.145Z,961.52
2019-01-19T01:58:09.074Z,961.51
2019-01-19T01:59:09.005Z,961.47
2019-01-19T02:00:08.935Z,961.46
2019-01-19T02:01:08.863Z,961.46
2019-01-19T02:02:08.792Z,961.48
2019-01-19T02:03:08.724Z,961.50
2019-01-19T02:04:08.648Z,961.50
2019-01-19T02:05:08.579Z,961.49
2019-01-19T02:06:08.511Z,961.47
2019-01-19T02:07:08.440Z,961.49
2019-01-19T02:08:08.373Z,961.46
2019-01-19T02:09:08.298Z,961.43
2019-01-19T02:10:08.230Z,961.44
2019-01-19T02:11:08.158Z,961.42
2019-01-19T02:12:08.087Z,961.47
2019-01-19T02:13:08.018Z,961.47
2019-01-19T02:14:07.951Z,961.41
2019-01-19T02:15:07.876Z,961.49
2019-01-19T02:16:07.808Z,961.47
2019-01-19T02:17:07.738Z,961.42
2019-01-19T02:18:07.668Z,961.42
2019-01-19T02:19:07.595Z,961.42
2019-01-19T02:20:07.522Z,961.43
2019-01-19T02:21:07.454Z,961.45
2019-01-19T02:22:07.385Z,961.41
2019-01-19T02:23:07.316Z,961.44
2019-01-19T02:24:07.244Z,961.47
2019-01-19T02:25:07.174Z,961.43
2019-01-19T02:26:07.103Z,961.43
2019-01-19T02:27:07.031Z,961.45
2019-01-19T02:28:06.960Z,961.38
2019-01-19T02:29:06.892Z,961.39
2019-01-19T02:30:06.824Z,961.37
2019-01-19T02:31:06.749Z,961.39
2019-01-19T02:32:06.687Z,961.39
2019-01-19T02:33:06.610Z,961.37
2019-01-19T02:34:06.540Z,961.39
2019-01-19T02:35:06.469Z,961.38
2019-01-19T02:36:06.403Z,961.32
2019-01-19T02:37:06.370Z,961.36
2019-01-19T02:38:06.255Z,961.36
2019-01-19T02:39:06.188Z,961.33
2019-01-19T02:40:06.116Z,961.33
2019-01-19T02:41:06.047Z,961.30
2019-01-19T02:42:05.979Z,961.31
2019-01-19T02:43:05.906Z,961.29
2019-01-19T02:44:05.835Z,961.36
2019-01-19T02:45:05.764Z,961.31
2019-01-19T02:46:05.690Z,961.30
2019-01-19T02:47:05.633Z,961.35
2019-01-19T02:48:05.551Z,961.31
2019-01-19T02:49:05.482Z,961.31
2019-01-19T02:50:05.417Z,961.32
2019-01-19T02:51:05.344Z,961.29
2019-01-19T02:52:05.271Z,961.31
2019-01-19T02:53:05.204Z,961.27
2019-01-19T02:54:05.131Z,961.33
2019-01-19T02:55:06.191Z,961.29
2019-01-19T02:56:04.990Z,961.30
2019-01-19T02:57:04.919Z,961.28
2019-01-19T02:58:04.864Z,961.29
2019-01-19T02:59:04.776Z,961.27
2019-01-19T03:00:04.707Z,961.28
2019-01-19T03:01:04.639Z,961.26
2019-01-19T03:02:04.567Z,961.33
2019-01-19T03:03:04.497Z,961.30
2019-01-19T03:04:04.428Z,961.31
2019-01-19T03:05:04.378Z,961.31
2019-01-19T03:06:04.286Z,961.32
2019-01-19T03:07:04.213Z,961.31
2019-01-19T03:08:04.146Z,961.33
2019-01-19T03:09:04.073Z,961.29
2019-01-19T03:10:04.004Z,961.32
2019-01-19T03:11:03.931Z,961.26
2019-01-19T03:12:03.867Z,961.27
2019-01-19T03:13:03.788Z,961.23
2019-01-19T03:14:03.719Z,961.26
2019-01-19T03:15:03.648Z,961.22
2019-01-19T03:16:03.578Z,961.23
2019-01-19T03:17:03.505Z,961.24
2019-01-19T03:18:03.436Z,961.24
2019-01-19T03:19:03.366Z,961.22
2019-01-19T03:20:03.298Z,961.24
2019-01-19T03:21:03.223Z,961.26
2019-01-19T03:22:03.156Z,961.27
2019-01-19T03:23:03.085Z,961.24
2019-01-19T03:24:03.013Z,961.24
2019-01-19T03:25:02.940Z,961.23
2019-01-19T03:26:02.872Z,961.27
2019-01-19T03:27:02.803Z,961.22
2019-01-19T03:28:02.733Z,961.21
2019-01-19T03:29:02.662Z,961.21
2019-01-19T03:30:02.589Z,961.26
2019-01-19T03:31:02.531Z,961.26
2019-01-19T03:32:02.450Z,961.26
2019-01-19T03:33:02.380Z,961.25
2019-01-19T03:34:02.318Z,961.27
2019-01-19T03:35:02.235Z,961.26
2019-01-19T03:36:04.485Z,961.25
2019-01-19T03:37:02.096Z,961.24
2019-01-19T03:38:02.027Z,961.26
2019-01-19T03:39:01.956Z,961.23
2019-01-19T03:40:01.885Z,961.24
2019-01-19T03:41:01.813Z,961.25
2019-01-19T03:42:01.741Z,961.22
2019-01-19T03:43:01.671Z,961.22
2019-01-19T03:44:01.600Z,961.25
2019-01-19T03:45:01.534Z,961.21
2019-01-19T03:46:01.464Z,961.18
2019-01-19T03:47:01.401Z,961.18
2019-01-19T03:48:01.320Z,961.20
2019-01-19T03:49:01.249Z,961.17
2019-01-19T03:50:01.177Z,961.17
2019-01-19T03:51:01.105Z,961.15
2019-01-19T03:52:01.038Z,961.16
2019-01-19T03:53:00.971Z,961.19
2019-01-19T03:54:00.894Z,961.13
2019-01-19T03:55:00.825Z,961.13
2019-01-19T03:56:00.751Z,961.15
2019-01-19T03:57:00.681Z,961.18
2019-01-19T03:58:00.611Z,961.15
2019-01-19T03:59:00.538Z,961.11
2019-01-19T04:00:00.465Z,961.12
2019-01-19T04:01:00.395Z,961.12
2019-01-19T04:02:00.325Z,961.10
2019-01-19T04:03:00.254Z,961.13
2019-01-19T04:04:00.182Z,961.08
2019-01-19T04:05:00.308Z,961.10
2019-01-19T04:06:00.043Z,961.13
2019-01-19T04:06:59.972Z,961.08
2019-01-19T04:07:59.907Z,961.06
2019-01-19T04:08:59.861Z,961.07
2019-01-19T04:09:59.759Z,961.08
2019-01-19T04:10:59.685Z,961.03
2019-01-19T04:11:59.616Z,961.04
2019-01-19T04:12:59.548Z,961.03
2019-01-19T04:13:59.479Z,961.00
2019-01-19T04:14:59.406Z,961.01
2019-01-19T04:15:59.336Z,960.98
2019-01-19T04:16:59.264Z,960.97
2019-01-19T04:17:59.193Z,960.99
2019-01-19T04:18:59.124Z,961.01
2019-01-19T04:19:59.054Z,960.97
2019-01-19T04:20:58.979Z,961.00
2019-01-19T04:21:58.908Z,960.99
2019-01-19T04:22:58.839Z,960.98
2019-01-19T04:23:58.768Z,960.97
2019-01-19T04:24:58.697Z,960.95
2019-01-19T04:25:58.626Z,960.97
2019-01-19T04:26:58.553Z,960.95
2019-01-19T04:27:58.483Z,960.91
2019-01-19T04:28:58.420Z,960.98
2019-01-19T04:29:58.342Z,960.97
2019-01-19T04:30:58.269Z,960.98
2019-01-19T04:31:58.200Z,960.97
2019-01-19T04:32:58.144Z,960.99
2019-01-19T04:33:58.057Z,960.97
2019-01-19T04:34:57.995Z,960.97
2019-01-19T04:35:57.917Z,960.97
2019-01-19T04:36:57.848Z,960.96
2019-01-19T04:37:57.779Z,960.98
2019-01-19T04:38:57.708Z,961.01
2019-01-19T04:39:57.631Z,961.01
2019-01-19T04:40:57.566Z,960.96
2019-01-19T04:41:57.491Z,961.01
2019-01-19T04:42:57.423Z,960.97
2019-01-19T04:43:57.348Z,961.00
2019-01-19T04:44:57.279Z,960.99
2019-01-19T04:45:57.210Z,960.97
2019-01-19T04:46:57.134Z,961.00
2019-01-19T04:47:57.065Z,961.00
2019-01-19T04:48:56.997Z,960.97
2019-01-19T04:49:56.924Z,961.01
2019-01-19T04:50:56.851Z,961.01
2019-01-19T04:51:56.788Z,961.02
2019-01-19T04:52:56.711Z,961.02
2019-01-19T04:53:56.658Z,961.08
2019-01-19T04:54:56.571Z,961.07
2019-01-19T04:55:56.501Z,961.06
2019-01-19T04:56:56.429Z,961.05
2019-01-19T04:57:56.363Z,961.04
2019-01-19T04:58:56.285Z,961.04
2019-01-19T04:59:56.214Z,961.01
2019-01-19T05:00:56.150Z,960.95
2019-01-19T05:01:56.082Z,960.99
2019-01-19T05:02:56.001Z,960.94
2019-01-19T05:03:55.932Z,960.94
2019-01-19T05:04:55.897Z,960.92
2019-01-19T05:05:55.791Z,960.93
2019-01-19T05:06:55.718Z,960.94
2019-01-19T05:07:55.649Z,960.90
2019-01-19T05:08:55.573Z,960.93
2019-01-19T05:09:55.504Z,960.89
2019-01-19T05:10:55.435Z,960.91
2019-01-19T05:11:55.364Z,960.90
2019-01-19T05:12:55.292Z,960.88
2019-01-19T05:13:55.227Z,960.86
2019-01-19T05:14:55.150Z,960.86
2019-01-19T05:15:55.114Z,960.81
2019-01-19T05:16:55.005Z,960.80
2019-01-19T05:17:55.364Z,960.84
2019-01-19T05:18:54.866Z,960.80
2019-01-19T05:19:54.791Z,960.79
2019-01-19T05:20:54.725Z,960.82
2019-01-19T05:21:54.692Z,960.83
2019-01-19T05:22:54.581Z,960.83
2019-01-19T05:23:54.509Z,960.81
2019-01-19T05:24:54.441Z,960.80
2019-01-19T05:25:54.370Z,960.83
2019-01-19T05:26:54.302Z,960.81
2019-01-19T05:27:54.230Z,960.81
2019-01-19T05:28:54.157Z,960.83
2019-01-19T05:29:54.082Z,960.79
2019-01-19T05:30:54.016Z,960.80
2019-01-19T05:31:53.941Z,960.80
2019-01-19T05:32:53.871Z,960.81
2019-01-19T05:33:53.802Z,960.81
2019-01-19T05:34:53.730Z,960.83
2019-01-19T05:35:53.660Z,960.81
2019-01-19T05:36:53.588Z,960.78
2019-01-19T05:37:53.516Z,960.80
2019-01-19T05:38:53.445Z,960.80
2019-01-19T05:39:53.376Z,960.77
2019-01-19T05:40:53.306Z,960.80
2019-01-19T05:41:53.232Z,960.79
2019-01-19T05:42:53.162Z,960.80
2019-01-19T05:43:53.096Z,960.78
2019-01-19T05:44:53.031Z,960.76
2019-01-19T05:45:52.951Z,960.83
2019-01-19T05:46:52.877Z,960.82
2019-01-19T05:47:52.806Z,960.83
2019-01-19T05:48:52.737Z,960.86
2019-01-19T05:49:52.664Z,960.80
2019-01-19T05:50:52.641Z,960.79
2019-01-19T05:51:52.522Z,960.78
2019-01-19T05:52:52.450Z,960.80
2019-01-19T05:53:52.382Z,960.78
2019-01-19T05:54:52.307Z,960.78
2019-01-19T05:55:52.238Z,960.78
2019-01-19T05:56:52.167Z,960.79
2019-01-19T05:57:52.099Z,960.73
2019-01-19T05:58:52.019Z,960.74
2019-01-19T05:59:51.954Z,960.76
2019-01-19T06:00:51.884Z,960.78
2019-01-19T06:01:51.814Z,960.74
2019-01-19T06:02:51.741Z,960.79
2019-01-19T06:03:51.671Z,960.74
2019-01-19T06:04:51.612Z,960.78
2019-01-19T06:05:51.531Z,960.73
2019-01-19T06:06:51.455Z,960.75
2019-01-19T06:07:51.388Z,960.76
2019-01-19T06:08:51.317Z,960.76
2019-01-19T06:09:51.247Z,960.72
2019-01-19T06:10:51.176Z,960.74
2019-01-19T06:11:51.104Z,960.79
2019-01-19T06:12:51.033Z,960.79
2019-01-19T06:13:50.960Z,960.80
2019-01-19T06:14:50.888Z,960.79
2019-01-19T06:15:50.822Z,960.80
2019-01-19T06:16:50.748Z,960.83
2019-01-19T06:17:50.674Z,960.83
2019-01-19T06:18:50.608Z,960.82
2019-01-19T06:19:50.533Z,960.83
2019-01-19T06:20:50.464Z,960.84
2019-01-19T06:21:50.393Z,960.84
2019-01-19T06:22:50.320Z,960.87
2019-01-19T06:23:50.249Z,960.83
2019-01-19T06:24:50.181Z,960.83
2019-01-19T06:25:50.109Z,960.80
2019-01-19T06:26:50.040Z,960.80
2019-01-19T06:27:49.966Z,960.80
2019-01-19T06:28:49.897Z,960.78
2019-01-19T06:29:49.825Z,960.76
2019-01-19T06:30:49.758Z,960.79
2019-01-19T06:31:49.685Z,960.78
2019-01-19T06:32:49.617Z,960.77
2019-01-19T06:33:49.543Z,960.75
2019-01-19T06:34:49.479Z,960.77
2019-01-19T06:35:49.398Z,960.80
2019-01-19T06:36:54.834Z,960.74
2019-01-19T06:37:49.266Z,960.78
2019-01-19T06:38:49.186Z,960.79
2019-01-19T06:39:49.118Z,960.76
2019-01-19T06:40:49.044Z,960.80
2019-01-19T06:41:48.974Z,960.78
2019-01-19T06:42:48.908Z,960.81
2019-01-19T06:43:48.830Z,960.78
2019-01-19T06:44:48.762Z,960.78
2019-01-19T06:45:48.693Z,960.80
2019-01-19T06:46:48.617Z,960.81
2019-01-19T06:47:48.553Z,960.80
2019-01-19T06:48:48.479Z,960.78
2019-01-19T06:49:48.406Z,960.80
2019-01-19T06:50:48.347Z,960.76
2019-01-19T06:51:48.262Z,960.73
2019-01-19T06:52:48.195Z,960.78
2019-01-19T06:53:48.124Z,960.75
2019-01-19T06:54:48.050Z,960.73
2019-01-19T06:55:47.980Z,960.73
2019-01-19T06:56:47.910Z,960.73
2019-01-19T06:57:47.840Z,960.74
2019-01-19T06:58:47.766Z,960.76
2019-01-19T06:59:47.697Z,960.75
2019-01-19T07:00:47.629Z,960.72
2019-01-19T07:01:47.559Z,960.73
2019-01-19T07:02:47.486Z,960.70
2019-01-19T07:03:47.415Z,960.76
2019-01-19T07:04:47.342Z,960.74
2019-01-19T07:05:47.269Z,960.77
2019-01-19T07:06:47.201Z,960.77
2019-01-19T07:07:47.130Z,960.72
2019-01-19T07:08:47.061Z,960.75
2019-01-19T07:09:46.996Z,960.71
2019-01-19T07:10:46.918Z,960.76
2019-01-19T07:11:46.846Z,960.71
2019-01-19T07:12:46.775Z,960.74
2019-01-19T07:13:46.707Z,960.74
2019-01-19T07:14:46.637Z,960.79
2019-01-19T07:15:46.560Z,960.76
2019-01-19T07:16:46.493Z,960.80
2019-01-19T07:17:46.423Z,960.80
2019-01-19T07:18:46.352Z,960.82
2019-01-19T07:19:46.280Z,960.83
2019-01-19T07:20:46.212Z,960.84
2019-01-19T07:21:46.140Z,960.85
2019-01-19T07:22:46.067Z,960.86
2019-01-19T07:23:45.996Z,960.83
2019-01-19T07:24:45.926Z,960.82
2019-01-19T07:25:45.857Z,960.84
2019-01-19T07:26:45.785Z,960.83
2019-01-19T07:27:45.712Z,960.87
2019-01-19T07:28:45.645Z,960.81
2019-01-19T07:29:45.575Z,960.85
2019-01-19T07:30:45.502Z,960.88
2019-01-19T07:31:45.431Z,960.90
2019-01-19T07:32:45.366Z,960.88
2019-01-19T07:33:45.291Z,960.82
2019-01-19T07:34:45.219Z,960.88
2019-01-19T07:35:45.148Z,960.89
2019-01-19T07:36:45.078Z,960.81
2019-01-19T07:37:45.009Z,960.91
2019-01-19T07:38:44.934Z,960.87
2019-01-19T07:39:44.865Z,960.85
2019-01-19T07:40:44.792Z,960.86
2019-01-19T07:41:44.723Z,960.91
2019-01-19T07:42:44.666Z,960.86
2019-01-19T07:43:44.583Z,960.87
2019-01-19T07:44:44.512Z,960.87
2019-01-19T07:45:44.442Z,960.87
2019-01-19T07:46:44.368Z,960.90
2019-01-19T07:47:44.300Z,960.91
2019-01-19T07:48:44.230Z,960.91
2019-01-19T07:49:44.159Z,960.94
2019-01-19T07:50:44.088Z,960.91
2019-01-19T07:51:44.017Z,960.92
2019-01-19T07:52:43.946Z,960.90
2019-01-19T07:53:43.876Z,960.91
2019-01-19T07:54:43.809Z,960.95
2019-01-19T07:55:43.736Z,960.95
2019-01-19T07:56:43.664Z,960.94
2019-01-19T07:57:43.596Z,960.95
2019-01-19T07:58:43.522Z,960.94
2019-01-19T07:59:43.453Z,960.94
2019-01-19T08:00:43.382Z,960.95
2019-01-19T08:01:43.311Z,960.96
2019-01-19T08:02:43.240Z,961.02
2019-01-19T08:03:43.167Z,961.05
2019-01-19T08:04:43.098Z,961.06
2019-01-19T08:05:43.027Z,960.99
2019-01-19T08:06:42.960Z,961.03
2019-01-19T08:07:42.888Z,961.04
2019-01-19T08:08:42.815Z,961.03
2019-01-19T08:09:42.754Z,961.01
2019-01-19T08:10:42.674Z,961.11
2019-01-19T08:11:42.614Z,961.08
2019-01-19T08:12:42.532Z,961.09
2019-01-19T08:13:42.463Z,961.12
2019-01-19T08:14:42.390Z,961.11
2019-01-19T08:15:42.320Z,961.09
2019-01-19T08:16:42.252Z,961.10
2019-01-19T08:17:42.182Z,961.12
2019-01-19T08:18:42.113Z,961.11
2019-01-19T08:19:42.042Z,961.10
2019-01-19T08:20:41.968Z,961.13
2019-01-19T08:21:41.899Z,961.10
2019-01-19T08:22:41.828Z,961.11
2019-01-19T08:23:41.757Z,961.10
2019-01-19T08:24:41.687Z,961.11
2019-01-19T08:25:41.619Z,961.08
2019-01-19T08:26:41.551Z,961.04
2019-01-19T08:27:41.476Z,961.05
2019-01-19T08:28:41.406Z,961.03
2019-01-19T08:29:41.335Z,961.04
2019-01-19T08:30:41.267Z,961.04
2019-01-19T08:31:41.195Z,961.02
2019-01-19T08:32:41.123Z,961.05
2019-01-19T08:33:41.054Z,961.05
2019-01-19T08:34:40.986Z,961.00
2019-01-19T08:35:40.914Z,961.01
2019-01-19T08:36:40.849Z,961.06
2019-01-19T08:37:40.782Z,960.99
2019-01-19T08:38:40.703Z,960.99
2019-01-19T08:39:40.632Z,961.01
2019-01-19T08:40:40.560Z,961.07
2019-01-19T08:41:40.497Z,961.05
2019-01-19T08:42:40.418Z,961.04
2019-01-19T08:43:40.348Z,961.09
2019-01-19T08:44:40.278Z,961.08
2019-01-19T08:45:40.208Z,961.06
2019-01-19T08:46:40.139Z,961.04
2019-01-19T08:47:40.064Z,961.05
2019-01-19T08:48:39.995Z,961.02
2019-01-19T08:49:39.925Z,961.01
2019-01-19T08:50:39.854Z,960.99
2019-01-19T08:51:39.786Z,961.02
2019-01-19T08:52:39.714Z,961.03
2019-01-19T08:53:39.644Z,961.03
2019-01-19T08:54:39.577Z,961.02
2019-01-19T08:55:39.504Z,960.99
2019-01-19T08:56:39.434Z,961.01
2019-01-19T08:57:39.365Z,961.01
2019-01-19T08:58:39.292Z,961.00
2019-01-19T08:59:39.221Z,960.98
2019-01-19T09:00:39.152Z,961.01
2019-01-19T09:01:39.082Z,961.04
2019-01-19T09:02:39.007Z,961.02
2019-01-19T09:03:38.941Z,961.01
2019-01-19T09:04:38.869Z,961.01
2019-01-19T09:05:38.803Z,961.04
2019-01-19T09:06:38.729Z,961.01
2019-01-19T09:07:38.659Z,961.06
2019-01-19T09:08:38.591Z,961.08
2019-01-19T09:09:38.523Z,961.01
2019-01-19T09:10:38.445Z,961.04
2019-01-19T09:11:38.378Z,961.05
2019-01-19T09:12:38.308Z,961.05
2019-01-19T09:13:38.243Z,961.05
2019-01-19T09:14:38.167Z,961.07
2019-01-19T09:15:38.096Z,961.09
2019-01-19T09:16:39.902Z,961.09
2019-01-19T09:17:37.956Z,961.04
2019-01-19T09:18:37.887Z,961.12
2019-01-19T09:19:37.816Z,961.08
2019-01-19T09:20:37.746Z,961.07
2019-01-19T09:21:37.677Z,961.09
2019-01-19T09:22:37.608Z,961.13
2019-01-19T09:23:37.535Z,961.12
2019-01-19T09:24:37.465Z,961.15
2019-01-19T09:25:37.397Z,961.07
2019-01-19T09:26:37.327Z,961.10
2019-01-19T09:27:37.261Z,961.15
2019-01-19T09:28:37.186Z,961.13
2019-01-19T09:29:37.115Z,961.21
2019-01-19T09:30:37.047Z,961.16
2019-01-19T09:31:36.976Z,961.18
2019-01-19T09:32:36.907Z,961.12
2019-01-19T09:33:36.835Z,961.13
2019-01-19T09:34:36.766Z,961.09
2019-01-19T09:35:36.697Z,961.10
2019-01-19T09:36:36.625Z,961.12
2019-01-19T09:37:40.773Z,961.13
2019-01-19T09:38:36.484Z,961.19
2019-01-19T09:39:36.418Z,961.09
2019-01-19T09:40:36.384Z,961.15
2019-01-19T09:41:36.277Z,961.15
2019-01-19T09:42:36.205Z,961.20
2019-01-19T09:43:36.153Z,961.17
2019-01-19T09:44:36.065Z,961.23
2019-01-19T09:45:35.997Z,961.20
2019-01-19T09:46:35.928Z,961.18
2019-01-19T09:47:35.859Z,961.17
2019-01-19T09:48:35.783Z,961.15
2019-01-19T09:49:35.716Z,961.20
2019-01-19T09:50:35.643Z,961.20
2019-01-19T09:51:35.576Z,961.17
2019-01-19T09:52:35.504Z,961.16
2019-01-19T09:53:35.439Z,961.11
2019-01-19T09:54:35.364Z,961.15
2019-01-19T09:55:35.298Z,961.15
2019-01-19T09:56:35.223Z,961.15
2019-01-19T09:57:35.153Z,961.18
2019-01-19T09:58:35.086Z,961.16
2019-01-19T09:59:35.014Z,961.12
2019-01-19T10:00:36.628Z,961.16
2019-01-19T10:01:34.874Z,961.11
2019-01-19T10:02:34.803Z,961.15
2019-01-19T10:03:34.734Z,961.12
2019-01-19T10:04:34.664Z,961.13
2019-01-19T10:05:34.594Z,961.06
2019-01-19T10:06:34.521Z,961.09
2019-01-19T10:07:34.453Z,961.08
2019-01-19T10:08:34.380Z,961.04
2019-01-19T10:09:34.313Z,961.01
2019-01-19T10:10:34.243Z,961.02
2019-01-19T10:11:34.172Z,961.01
2019-01-19T10:12:34.102Z,960.99
2019-01-19T10:13:34.032Z,961.01
2019-01-19T10:14:33.962Z,960.98
2019-01-19T10:15:33.892Z,960.97
2019-01-19T10:16:33.822Z,960.99
2019-01-19T10:17:33.752Z,960.97
2019-01-19T10:18:33.678Z,960.92
2019-01-19T10:19:33.609Z,960.97
2019-01-19T10:20:33.541Z,960.94
2019-01-19T10:21:33.471Z,960.92
2019-01-19T10:22:33.404Z,960.90
2019-01-19T10:23:33.330Z,960.91
2019-01-19T10:24:33.260Z,960.89
2019-01-19T10:25:33.190Z,960.91
2019-01-19T10:26:33.124Z,960.93
2019-01-19T10:27:37.359Z,960.90
2019-01-19T10:28:32.977Z,960.89
2019-01-19T10:29:32.909Z,960.82
2019-01-19T10:30:32.839Z,960.88
2019-01-19T10:31:32.768Z,960.85
2019-01-19T10:32:32.696Z,960.85
2019-01-19T10:33:32.633Z,960.85
2019-01-19T10:34:32.560Z,960.82
2019-01-19T10:35:32.492Z,960.80
2019-01-19T10:36:32.420Z,960.82
2019-01-19T10:37:32.348Z,960.79
2019-01-19T10:38:32.280Z,960.78
2019-01-19T10:39:32.208Z,960.78
2019-01-19T10:40:32.138Z,960.75
2019-01-19T10:41:32.068Z,960.81
2019-01-19T10:42:32.002Z,960.82
2019-01-19T10:43:31.933Z,960.83
2019-01-19T10:44:31.864Z,960.80
2019-01-19T10:45:31.795Z,960.82
2019-01-19T10:46:31.721Z,960.80
2019-01-19T10:47:31.652Z,960.81
2019-01-19T10:48:31.583Z,960.81
2019-01-19T10:49:31.514Z,960.85
2019-01-19T10:50:31.442Z,960.83
2019-01-19T10:51:31.374Z,960.85
2019-01-19T10:52:31.305Z,960.83
2019-01-19T10:53:31.234Z,960.85
2019-01-19T10:54:31.165Z,960.84
2019-01-19T10:55:31.095Z,960.82
2019-01-19T10:56:31.026Z,960.80
2019-01-19T10:57:30.956Z,960.78
2019-01-19T10:58:30.886Z,960.75
2019-01-19T10:59:30.815Z,960.77
2019-01-19T11:00:30.750Z,960.74
2019-01-19T11:01:30.681Z,960.73
2019-01-19T11:02:30.608Z,960.67
2019-01-19T11:03:30.535Z,960.68
2019-01-19T11:04:30.468Z,960.71
2019-01-19T11:05:30.402Z,960.71
2019-01-19T11:06:30.339Z,960.69
2019-01-19T11:07:30.260Z,960.70
2019-01-19T11:08:30.232Z,960.65
2019-01-19T11:09:30.122Z,960.66
2019-01-19T11:10:30.050Z,960.64
2019-01-19T11:11:29.982Z,960.64
2019-01-19T11:12:29.912Z,960.64
2019-01-19T11:13:29.841Z,960.65
2019-01-19T11:14:29.771Z,960.59
2019-01-19T11:15:29.704Z,960.59
2019-01-19T11:16:29.634Z,960.63
2019-01-19T11:17:29.564Z,960.60
2019-01-19T11:18:29.494Z,960.57
2019-01-19T11:19:29.427Z,960.59
2019-01-19T11:20:29.358Z,960.57
2019-01-19T11:21:29.286Z,960.60
2019-01-19T11:22:29.219Z,960.53
2019-01-19T11:23:29.143Z,960.49
2019-01-19T11:24:29.077Z,960.50
2019-01-19T11:25:29.009Z,960.50
2019-01-19T11:26:28.937Z,960.44
2019-01-19T11:27:28.863Z,960.45
2019-01-19T11:28:28.797Z,960.43
2019-01-19T11:29:28.728Z,960.42
2019-01-19T11:30:28.705Z,960.40
2019-01-19T11:31:28.592Z,960.38
2019-01-19T11:32:28.520Z,960.37
2019-01-19T11:33:28.449Z,960.34
2019-01-19T11:34:28.379Z,960.35
2019-01-19T11:35:28.312Z,960.33
2019-01-19T11:36:28.240Z,960.36
2019-01-19T11:37:28.172Z,960.33
2019-01-19T11:38:28.100Z,960.33
2019-01-19T11:39:28.032Z,960.36
2019-01-19T11:40:27.962Z,960.31
2019-01-19T11:41:27.893Z,960.28
2019-01-19T11:42:27.821Z,960.28
2019-01-19T11:43:27.752Z,960.25
2019-01-19T11:44:27.688Z,960.23
2019-01-19T11:45:27.613Z,960.23
2019-01-19T11:46:27.542Z,960.24
2019-01-19T11:47:27.475Z,960.18
2019-01-19T11:48:27.406Z,960.19
2019-01-19T11:49:27.332Z,960.21
2019-01-19T11:50:27.265Z,960.11
2019-01-19T11:51:27.189Z,960.16
2019-01-19T11:52:27.125Z,960.16
2019-01-19T11:53:27.056Z,960.17
2019-01-19T11:54:26.984Z,960.14
2019-01-19T11:55:26.915Z,960.12
2019-01-19T11:56:26.850Z,960.11
2019-01-19T11:57:26.778Z,960.11
2019-01-19T11:58:26.704Z,960.10
2019-01-19T11:59:26.635Z,960.09
2019-01-19T12:00:26.573Z,960.08
2019-01-19T12:01:26.500Z,960.10
2019-01-19T12:02:26.423Z,960.07
2019-01-19T12:03:26.359Z,960.08
2019-01-19T12:04:26.286Z,960.09
2019-01-19T12:05:26.219Z,960.10
2019-01-19T12:06:26.147Z,960.09
2019-01-19T12:07:26.080Z,960.10
2019-01-19T12:08:26.011Z,960.06
2019-01-19T12:09:25.941Z,960.06
2019-01-19T12:10:25.868Z,960.00
2019-01-19T12:11:25.797Z,960.02
2019-01-19T12:12:25.731Z,959.99
2019-01-19T12:13:25.662Z,960.00
2019-01-19T12:14:25.591Z,959.97
2019-01-19T12:15:25.519Z,959.99
2019-01-19T12:16:25.453Z,960.00
2019-01-19T12:17:25.378Z,959.97
2019-01-19T12:18:25.308Z,959.92
2019-01-19T12:19:25.243Z,959.88
2019-01-19T12:20:25.181Z,959.93
2019-01-19T12:21:25.101Z,959.92
2019-01-19T12:22:25.031Z,959.93
2019-01-19T12:23:24.961Z,959.89
2019-01-19T12:24:24.892Z,959.91
2019-01-19T12:25:24.830Z,959.92
2019-01-19T12:26:24.755Z,959.89
2019-01-19T12:27:24.685Z,959.87